createdAt,value
2019-03-11T00:00:53.786Z,949.87
2019-03-11T00:03:20.096Z,949.87
2019-03-11T00:05:46.408Z,949.77
2019-03-11T00:08:12.727Z,949.79
2019-03-11T00:10:39.042Z,949.79
2019-03-11T00:13:05.350Z,949.91
2019-03-11T00:15:31.665Z,949.93
2019-03-11T00:17:57.987Z,949.94
2019-03-11T00:20:24.290Z,949.85
2019-03-11T00:22:50.605Z,949.80
2019-03-11T00:25:16.914Z,949.78
2019-03-11T00:27:43.228Z,949.88
2019-03-11T00:30:09.545Z,949.80
2019-03-11T00:32:35.897Z,949.82
2019-03-11T00:35:02.208Z,949.80
2019-03-11T00:37:28.514Z,949.90
2019-03-11T00:39:54.829Z,949.86
2019-03-11T00:42:21.132Z,949.83
2019-03-11T00:44:47.447Z,949.80
2019-03-11T00:47:13.759Z,949.73
2019-03-11T00:49:40.071Z,949.75
2019-03-11T00:52:06.435Z,949.74
2019-03-11T00:54:32.780Z,949.72
2019-03-11T00:56:59.013Z,949.75
2019-03-11T00:59:25.329Z,949.68
2019-03-11T01:01:51.639Z,949.72
2019-03-11T01:04:17.958Z,949.75
2019-03-11T01:06:44.274Z,949.82
2019-03-11T01:09:10.586Z,949.87
2019-03-11T01:11:36.903Z,949.91
2019-03-11T01:14:03.221Z,949.83
2019-03-11T01:16:29.530Z,949.92
2019-03-11T01:18:55.843Z,949.90
2019-03-11T01:21:22.153Z,949.90
2019-03-11T01:23:48.470Z,949.86
2019-03-11T01:26:14.785Z,949.91
2019-03-11T01:28:41.099Z,949.89
2019-03-11T01:31:07.410Z,949.95
2019-03-11T01:33:33.722Z,949.91
2019-03-11T01:36:00.074Z,949.85
2019-03-11T01:38:26.359Z,949.83
2019-03-11T01:40:52.669Z,949.85
2019-03-11T01:43:18.982Z,949.90
2019-03-11T01:45:45.304Z,949.86
2019-03-11T01:48:11.626Z,949.87
2019-03-11T01:50:37.938Z,949.86
2019-03-11T01:53:04.254Z,949.81
2019-03-11T01:55:30.571Z,949.76
2019-03-11T01:57:56.878Z,949.77
2019-03-11T02:00:23.180Z,949.74
2019-03-11T02:02:49.495Z,949.72
2019-03-11T02:05:15.806Z,949.71
2019-03-11T02:07:42.122Z,949.69
2019-03-11T02:10:08.428Z,949.70
2019-03-11T02:12:34.742Z,949.69
2019-03-11T02:15:01.062Z,949.69
2019-03-11T02:17:27.477Z,949.72
2019-03-11T02:19:53.786Z,949.66
2019-03-11T02:22:20.100Z,949.70
2019-03-11T02:24:46.405Z,949.68
2019-03-11T02:27:12.733Z,949.73
2019-03-11T02:29:39.046Z,949.73
2019-03-11T02:32:05.345Z,949.78
2019-03-11T02:34:31.665Z,949.70
2019-03-11T02:36:57.997Z,949.64
2019-03-11T02:39:24.307Z,949.68
2019-03-11T02:41:50.612Z,949.69
2019-03-11T02:44:16.926Z,949.69
2019-03-11T02:46:43.237Z,949.59
2019-03-11T02:49:09.556Z,949.69
2019-03-11T02:51:35.875Z,949.76
2019-03-11T02:54:02.200Z,949.78
2019-03-11T02:56:28.549Z,949.86
2019-03-11T02:58:54.823Z,949.92
2019-03-11T03:01:21.139Z,949.92
2019-03-11T03:03:47.444Z,949.92
2019-03-11T03:06:13.754Z,949.99
2019-03-11T03:08:40.068Z,950.00
2019-03-11T03:11:06.375Z,950.00
2019-03-11T03:13:32.685Z,950.09
2019-03-11T03:15:59.007Z,950.15
2019-03-11T03:18:25.309Z,950.06
2019-03-11T03:20:51.631Z,950.10
2019-03-11T03:23:17.944Z,950.15
2019-03-11T03:25:44.249Z,950.18
2019-03-11T03:28:10.559Z,950.10
2019-03-11T03:30:36.893Z,950.08
2019-03-11T03:33:03.207Z,950.09
2019-03-11T03:35:29.505Z,950.11
2019-03-11T03:37:55.833Z,950.16
2019-03-11T03:40:22.134Z,950.15
2019-03-11T03:42:48.477Z,950.17
2019-03-11T03:45:14.756Z,950.19
2019-03-11T03:47:41.066Z,950.22
2019-03-11T03:50:07.386Z,950.23
2019-03-11T03:52:33.701Z,950.25
2019-03-11T03:55:00.010Z,950.25
2019-03-11T03:57:26.324Z,950.35
2019-03-11T03:59:52.635Z,950.34
2019-03-11T04:02:18.942Z,950.32
2019-03-11T04:04:45.248Z,950.42
2019-03-11T04:07:11.561Z,950.43
2019-03-11T04:09:37.873Z,950.50
2019-03-11T04:12:04.199Z,950.53
2019-03-11T04:14:30.545Z,950.51
2019-03-11T04:16:56.874Z,950.54
2019-03-11T04:19:23.198Z,950.60
2019-03-11T04:21:49.523Z,950.61
2019-03-11T04:24:15.836Z,950.62
2019-03-11T04:26:42.148Z,950.61
2019-03-11T04:29:08.451Z,950.64
2019-03-11T04:31:34.769Z,950.55
2019-03-11T04:34:01.078Z,950.62
2019-03-11T04:36:27.391Z,950.56
2019-03-11T04:38:53.695Z,950.59
2019-03-11T04:41:20.035Z,950.64
2019-03-11T04:43:46.342Z,950.57
2019-03-11T04:46:12.665Z,950.69
2019-03-11T04:48:38.980Z,950.61
2019-03-11T04:51:05.285Z,950.57
2019-03-11T04:53:31.613Z,950.63
2019-03-11T04:55:57.918Z,950.58
2019-03-11T04:58:24.235Z,950.60
2019-03-11T05:00:50.541Z,950.57
2019-03-11T05:03:16.858Z,950.54
2019-03-11T05:05:43.168Z,950.53
2019-03-11T05:08:09.493Z,950.57
2019-03-11T05:10:35.810Z,950.60
2019-03-11T05:13:02.120Z,950.60
2019-03-11T05:15:28.438Z,950.59
2019-03-11T05:17:54.747Z,950.67
2019-03-11T05:20:21.070Z,950.75
2019-03-11T05:22:47.404Z,950.63
2019-03-11T05:25:13.715Z,950.63
2019-03-11T05:27:40.031Z,950.63
2019-03-11T05:30:08.093Z,950.56
2019-03-11T05:32:33.109Z,950.60
2019-03-11T05:34:59.532Z,950.59
2019-03-11T05:37:25.814Z,950.61
2019-03-11T05:39:52.131Z,950.56
2019-03-11T05:42:18.449Z,950.57
2019-03-11T05:44:44.776Z,950.56
2019-03-11T05:47:11.121Z,950.54
2019-03-11T05:49:37.408Z,950.50
2019-03-11T05:52:03.717Z,950.54
2019-03-11T05:54:30.032Z,950.51
2019-03-11T05:56:58.967Z,950.49
2019-03-11T05:59:22.673Z,950.56
2019-03-11T06:01:48.989Z,950.53
2019-03-11T06:04:15.532Z,950.60
2019-03-11T06:06:41.846Z,950.60
2019-03-11T06:09:08.158Z,950.64
2019-03-11T06:11:34.498Z,950.69
2019-03-11T06:14:00.810Z,950.69
2019-03-11T06:16:27.135Z,950.69
2019-03-11T06:18:53.484Z,950.72
2019-03-11T06:21:19.825Z,950.74
2019-03-11T06:23:46.149Z,950.77
2019-03-11T06:26:12.423Z,950.79
2019-03-11T06:28:38.768Z,950.71
2019-03-11T06:31:05.057Z,950.76
2019-03-11T06:33:31.372Z,950.72
2019-03-11T06:35:57.742Z,950.77
2019-03-11T06:38:24.058Z,950.75
2019-03-11T06:40:50.526Z,950.72
2019-03-11T06:43:16.795Z,950.60
2019-03-11T06:45:43.109Z,950.59
2019-03-11T06:50:54.725Z,950.60
2019-03-11T06:53:21.044Z,950.66
2019-03-11T06:55:47.609Z,950.63
2019-03-11T06:58:13.957Z,950.57
2019-03-11T07:00:40.241Z,950.61
2019-03-11T07:03:06.549Z,950.55
2019-03-11T07:05:33.696Z,950.52
2019-03-11T07:08:00.065Z,950.48
2019-03-11T07:10:28.950Z,950.43
2019-03-11T07:12:55.256Z,950.46
2019-03-11T07:15:21.581Z,950.44
2019-03-11T07:17:47.897Z,950.40
2019-03-11T07:20:14.210Z,950.37
2019-03-11T07:22:40.561Z,950.27
2019-03-11T07:25:06.851Z,950.31
2019-03-11T07:27:33.173Z,950.28
2019-03-11T07:29:59.475Z,950.18
2019-03-11T07:32:25.828Z,950.24
2019-03-11T07:34:52.153Z,950.10
2019-03-11T07:37:18.538Z,950.12
2019-03-11T07:39:44.769Z,950.10
2019-03-11T07:42:11.357Z,950.03
2019-03-11T07:44:37.830Z,950.09
2019-03-11T07:47:13.308Z,950.02
2019-03-11T07:49:39.462Z,949.99
2019-03-11T07:52:05.822Z,950.04
2019-03-11T07:54:35.798Z,949.90
2019-03-11T07:56:58.446Z,949.95
2019-03-11T07:59:24.754Z,949.98
2019-03-11T08:01:51.066Z,949.92
2019-03-11T08:04:17.418Z,949.87
2019-03-11T08:06:43.740Z,949.86
2019-03-11T08:09:10.075Z,949.80
2019-03-11T08:11:36.402Z,949.88
2019-03-11T08:14:02.719Z,949.86
2019-03-11T08:16:29.535Z,949.83
2019-03-11T08:18:55.841Z,949.77
2019-03-11T08:21:22.134Z,949.77
2019-03-11T08:23:48.446Z,949.79
2019-03-11T08:26:14.753Z,949.72
2019-03-11T08:28:41.065Z,949.64
2019-03-11T08:31:07.387Z,949.66
2019-03-11T08:33:33.692Z,949.55
2019-03-11T08:36:00.010Z,949.47
2019-03-11T08:38:26.329Z,949.41
2019-03-11T08:40:52.655Z,949.32
2019-03-11T08:43:19.058Z,949.35
2019-03-11T08:45:45.348Z,949.31
2019-03-11T08:48:11.658Z,949.25
2019-03-11T08:50:38.014Z,949.21
2019-03-11T08:53:04.290Z,949.13
2019-03-11T08:55:30.616Z,949.17
2019-03-11T08:57:57.212Z,949.16
2019-03-11T09:00:23.521Z,949.06
2019-03-11T09:02:49.832Z,948.96
2019-03-11T09:05:16.211Z,949.06
2019-03-11T09:07:42.522Z,948.93
2019-03-11T09:10:08.854Z,948.90
2019-03-11T09:12:41.311Z,948.81
2019-03-11T09:15:07.638Z,948.79
2019-03-11T09:17:34.802Z,948.69
2019-03-11T09:20:00.349Z,948.64
2019-03-11T09:22:26.652Z,948.62
2019-03-11T09:24:52.985Z,948.67
2019-03-11T09:27:19.337Z,948.62
2019-03-11T09:29:45.659Z,948.61
2019-03-11T09:32:11.965Z,948.57
2019-03-11T09:34:38.294Z,948.61
2019-03-11T09:37:04.633Z,948.55
2019-03-11T09:39:30.957Z,948.44
2019-03-11T09:41:57.270Z,948.53
2019-03-11T09:44:23.602Z,948.54
2019-03-11T09:46:49.941Z,948.50
2019-03-11T09:49:16.282Z,948.44
2019-03-11T09:51:42.615Z,948.48
2019-03-11T09:54:08.942Z,948.50
2019-03-11T09:56:42.958Z,948.57
2019-03-11T09:59:01.565Z,948.50
2019-03-11T10:01:27.883Z,948.51
2019-03-11T10:03:54.190Z,948.48
2019-03-11T10:06:20.549Z,948.46
2019-03-11T10:08:46.857Z,948.44
2019-03-11T10:11:13.165Z,948.40
2019-03-11T10:13:39.495Z,948.41
2019-03-11T10:16:05.945Z,948.44
2019-03-11T10:18:32.156Z,948.43
2019-03-11T10:20:58.537Z,948.45
2019-03-11T10:23:32.023Z,948.35
2019-03-11T10:25:51.310Z,948.34
2019-03-11T10:28:17.640Z,948.32
2019-03-11T10:30:43.949Z,948.33
2019-03-11T10:33:10.286Z,948.35
2019-03-11T10:35:36.620Z,948.25
2019-03-11T10:38:02.919Z,948.33
2019-03-11T10:40:29.232Z,948.33
2019-03-11T10:42:55.554Z,948.33
2019-03-11T10:45:30.534Z,948.24
2019-03-11T10:47:48.618Z,948.28
2019-03-11T10:50:14.929Z,948.14
2019-03-11T10:52:41.258Z,948.16
2019-03-11T10:55:07.570Z,948.12
2019-03-11T10:57:33.910Z,948.17
2019-03-11T11:00:00.391Z,948.12
2019-03-11T11:02:26.626Z,948.12
2019-03-11T11:04:53.005Z,948.06
2019-03-11T11:07:19.346Z,948.03
2019-03-11T11:09:45.625Z,947.96
2019-03-11T11:12:11.967Z,947.94
2019-03-11T11:14:38.317Z,947.83
2019-03-11T11:17:04.587Z,947.87
2019-03-11T11:19:30.913Z,947.90
2019-03-11T11:21:57.220Z,947.85
2019-03-11T11:24:23.532Z,947.78
2019-03-11T11:26:49.854Z,947.76
2019-03-11T11:29:16.156Z,947.76
2019-03-11T11:31:42.476Z,947.64
2019-03-11T11:34:08.787Z,947.61
2019-03-11T11:36:35.097Z,947.54
2019-03-11T11:39:01.405Z,947.49
2019-03-11T11:41:27.729Z,947.42
2019-03-11T11:43:54.047Z,947.45
2019-03-11T11:46:20.358Z,947.35
2019-03-11T11:48:46.681Z,947.28
2019-03-11T11:51:12.995Z,947.20
2019-03-11T11:53:39.299Z,947.21
2019-03-11T11:56:05.608Z,947.15
2019-03-11T11:58:31.912Z,947.13
2019-03-11T12:00:58.226Z,947.07
2019-03-11T12:03:24.538Z,946.96
2019-03-11T12:05:50.879Z,946.91
2019-03-11T12:08:17.193Z,946.93
2019-03-11T12:10:43.496Z,946.88
2019-03-11T12:13:09.825Z,946.82
2019-03-11T12:15:36.134Z,946.74
2019-03-11T12:18:02.444Z,946.78
2019-03-11T12:20:28.761Z,946.79
2019-03-11T12:22:55.132Z,946.76
2019-03-11T12:25:21.449Z,946.65
2019-03-11T12:27:53.559Z,946.66
2019-03-11T12:30:14.078Z,946.58
2019-03-11T12:32:40.412Z,946.55
2019-03-11T12:35:06.728Z,946.50
2019-03-11T12:37:33.042Z,946.45
2019-03-11T12:39:59.352Z,946.39
2019-03-11T12:42:25.679Z,946.42
2019-03-11T12:44:53.736Z,946.40
2019-03-11T12:47:18.345Z,946.26
2019-03-11T12:49:44.677Z,946.29
2019-03-11T12:52:10.988Z,946.26
2019-03-11T12:54:37.309Z,946.17
2019-03-11T12:57:03.622Z,946.19
2019-03-11T12:59:29.933Z,946.11
2019-03-11T13:01:56.255Z,946.07
2019-03-11T13:04:22.564Z,946.08
2019-03-11T13:06:48.874Z,946.03
2019-03-11T13:09:15.189Z,946.04
2019-03-11T13:11:41.497Z,945.86
2019-03-11T13:14:07.829Z,945.94
2019-03-11T13:16:34.138Z,945.95
2019-03-11T13:19:00.447Z,945.95
2019-03-11T13:21:26.763Z,945.89
2019-03-11T13:23:53.069Z,945.79
2019-03-11T13:26:19.545Z,945.81
2019-03-11T13:28:48.378Z,945.84
2019-03-11T13:31:14.680Z,945.77
2019-03-11T13:33:40.988Z,945.73
2019-03-11T13:36:07.334Z,945.73
2019-03-11T13:38:34.612Z,945.73
2019-03-11T13:40:59.924Z,945.68
2019-03-11T13:43:26.237Z,945.64
2019-03-11T13:45:52.557Z,945.61
2019-03-11T13:48:18.888Z,945.51
2019-03-11T13:50:45.196Z,945.53
2019-03-11T13:53:11.507Z,945.49
2019-03-11T13:55:37.811Z,945.44
2019-03-11T13:58:04.116Z,945.36
2019-03-11T14:00:30.428Z,945.35
2019-03-11T14:02:56.731Z,945.28
2019-03-11T14:05:23.099Z,945.23
2019-03-11T14:07:49.414Z,945.32
2019-03-11T14:10:15.727Z,945.18
2019-03-11T14:12:42.076Z,945.23
2019-03-11T14:15:08.438Z,945.24
2019-03-11T14:17:34.667Z,945.33
2019-03-11T14:20:00.971Z,945.28
2019-03-11T14:22:27.422Z,945.26
2019-03-11T14:24:53.789Z,945.28
2019-03-11T14:27:20.097Z,945.15
2019-03-11T14:29:46.409Z,945.15
2019-03-11T14:32:12.915Z,945.17
2019-03-11T14:34:39.035Z,945.12
2019-03-11T14:37:05.390Z,945.09
2019-03-11T14:39:31.700Z,945.02
2019-03-11T14:41:58.003Z,945.16
2019-03-11T14:44:24.319Z,945.18
2019-03-11T14:46:50.621Z,945.23
2019-03-11T14:49:16.947Z,945.22
2019-03-11T14:51:43.251Z,945.25
2019-03-11T14:54:09.628Z,945.25
2019-03-11T14:56:35.929Z,945.16
2019-03-11T14:59:02.264Z,945.26
2019-03-11T15:01:28.577Z,945.29
2019-03-11T15:03:54.888Z,945.37
2019-03-11T15:06:21.218Z,945.35
2019-03-11T15:08:47.514Z,945.36
2019-03-11T15:11:13.841Z,945.48
2019-03-11T15:13:40.194Z,945.34
2019-03-11T15:16:06.525Z,945.33
2019-03-11T15:18:32.829Z,945.31
2019-03-11T15:20:59.137Z,945.25
2019-03-11T15:23:25.463Z,945.34
2019-03-11T15:25:51.761Z,945.25
2019-03-11T15:28:18.248Z,945.27
2019-03-11T15:30:44.541Z,945.28
2019-03-11T15:33:10.837Z,945.28
2019-03-11T15:35:37.211Z,945.34
2019-03-11T15:38:03.501Z,945.38
2019-03-11T15:40:29.826Z,945.30
2019-03-11T15:42:56.116Z,945.28
2019-03-11T15:45:22.441Z,945.40
2019-03-11T15:47:48.758Z,945.37
2019-03-11T15:50:15.061Z,945.42
2019-03-11T15:52:41.371Z,945.38
2019-03-11T15:55:07.742Z,945.41
2019-03-11T15:57:38.974Z,945.41
2019-03-11T16:00:00.388Z,945.48
2019-03-11T16:02:28.034Z,945.46
2019-03-11T16:04:54.342Z,945.44
2019-03-11T16:07:20.756Z,945.61
2019-03-11T16:09:47.017Z,945.54
2019-03-11T16:12:13.314Z,945.54
2019-03-11T16:14:48.919Z,945.63
2019-03-11T16:17:05.987Z,945.61
2019-03-11T16:19:32.242Z,945.56
2019-03-11T16:21:58.554Z,945.57
2019-03-11T16:24:24.873Z,945.60
2019-03-11T16:26:51.176Z,945.67
2019-03-11T16:29:17.509Z,945.68
2019-03-11T16:31:43.825Z,945.75
2019-03-11T16:34:10.138Z,945.70
2019-03-11T16:36:36.590Z,945.65
2019-03-11T16:39:02.930Z,945.83
2019-03-11T16:41:29.205Z,945.75
2019-03-11T16:43:55.515Z,945.77
2019-03-11T16:46:21.830Z,945.90
2019-03-11T16:48:48.263Z,945.76
2019-03-11T16:51:17.062Z,945.79
2019-03-11T16:53:43.389Z,945.91
2019-03-11T16:56:09.684Z,945.73
2019-03-11T16:58:36.016Z,945.79
2019-03-11T17:01:02.323Z,945.73
2019-03-11T17:03:28.642Z,945.83
2019-03-11T17:05:55.482Z,945.84
2019-03-11T17:08:21.750Z,945.94
2019-03-11T17:10:48.056Z,945.87
2019-03-11T17:13:14.381Z,945.90
2019-03-11T17:15:40.686Z,945.96
2019-03-11T17:18:06.999Z,945.98
2019-03-11T17:20:33.302Z,945.99
2019-03-11T17:22:59.527Z,946.04
2019-03-11T17:25:25.845Z,946.03
2019-03-11T17:27:53.128Z,946.07
2019-03-11T17:30:19.382Z,946.16
2019-03-11T17:32:45.719Z,946.17
2019-03-11T17:35:14.790Z,946.27
2019-03-11T17:37:41.097Z,946.23
2019-03-11T17:40:07.402Z,946.17
2019-03-11T17:42:33.709Z,946.24
2019-03-11T17:45:00.027Z,946.14
2019-03-11T17:47:26.333Z,946.20
2019-03-11T17:49:52.648Z,946.17
2019-03-11T17:52:18.954Z,946.21
2019-03-11T17:54:45.264Z,946.30
2019-03-11T17:57:11.571Z,946.18
2019-03-11T17:59:37.902Z,946.11
2019-03-11T18:02:04.268Z,946.30
2019-03-11T18:04:30.544Z,946.24
2019-03-11T18:06:56.953Z,946.19
2019-03-11T18:09:23.246Z,946.18
2019-03-11T18:11:49.560Z,946.30
2019-03-11T18:14:15.901Z,946.45
2019-03-11T18:16:42.213Z,946.55
2019-03-11T18:19:08.517Z,946.51
2019-03-11T18:21:34.820Z,946.41
2019-03-11T18:24:01.123Z,946.37
2019-03-11T18:26:27.494Z,946.30
2019-03-11T18:28:53.823Z,946.44
2019-03-11T18:31:20.124Z,946.46
2019-03-11T18:33:46.448Z,946.46
2019-03-11T18:36:12.743Z,946.55
2019-03-11T18:38:39.110Z,946.60
2019-03-11T18:41:05.392Z,946.52
2019-03-11T18:43:42.082Z,946.68
2019-03-11T18:45:58.001Z,946.71
2019-03-11T18:48:24.303Z,946.74
2019-03-11T18:50:50.649Z,946.79
2019-03-11T18:53:19.346Z,946.81
2019-03-11T18:55:43.262Z,946.86
2019-03-11T18:58:09.589Z,946.78
2019-03-11T19:00:36.162Z,946.61
2019-03-11T19:03:02.616Z,946.62
2019-03-11T19:05:30.870Z,946.63
2019-03-11T19:07:55.627Z,946.70
2019-03-11T19:10:21.858Z,946.67
2019-03-11T19:12:48.163Z,946.76
2019-03-11T19:15:14.630Z,946.71
2019-03-11T19:17:41.386Z,946.67
2019-03-11T19:20:07.712Z,946.57
2019-03-11T19:22:33.997Z,946.53
2019-03-11T19:25:00.348Z,946.66
2019-03-11T19:27:26.656Z,946.66
2019-03-11T19:29:52.959Z,946.71
2019-03-11T19:32:19.299Z,946.63
2019-03-11T19:34:45.585Z,946.58
2019-03-11T19:37:11.893Z,946.56
2019-03-11T19:39:38.207Z,946.56
2019-03-11T19:42:04.561Z,946.46
2019-03-11T19:44:30.888Z,946.49
2019-03-11T19:46:57.215Z,946.45
2019-03-11T19:49:23.531Z,946.41
2019-03-11T19:51:49.809Z,946.48
2019-03-11T19:54:16.115Z,946.54
2019-03-11T19:56:42.422Z,946.49
2019-03-11T19:59:08.819Z,946.55
2019-03-11T20:01:35.042Z,946.52
2019-03-11T20:04:01.451Z,946.47
2019-03-11T20:06:27.747Z,946.48
2019-03-11T20:08:54.065Z,946.47
2019-03-11T20:11:20.480Z,946.47
2019-03-11T20:13:46.698Z,946.39
2019-03-11T20:16:13.014Z,946.40
2019-03-11T20:18:39.328Z,946.30
2019-03-11T20:21:05.662Z,946.27
2019-03-11T20:23:31.985Z,946.20
2019-03-11T20:25:58.294Z,946.23
2019-03-11T20:28:24.665Z,946.35
2019-03-11T20:30:50.955Z,946.32
2019-03-11T20:33:17.215Z,946.33
2019-03-11T20:35:43.513Z,946.40
2019-03-11T20:38:09.925Z,946.49
2019-03-11T20:40:36.229Z,946.46
2019-03-11T20:43:02.523Z,946.39
2019-03-11T20:45:28.834Z,946.45
2019-03-11T20:47:55.147Z,946.43
2019-03-11T20:50:21.467Z,946.44
2019-03-11T20:52:47.866Z,946.47
2019-03-11T20:55:14.168Z,946.51
2019-03-11T20:57:40.476Z,946.55
2019-03-11T21:00:06.825Z,946.57
2019-03-11T21:02:33.172Z,946.54
2019-03-11T21:04:59.672Z,946.54
2019-03-11T21:07:25.917Z,946.45
2019-03-11T21:09:52.192Z,946.37
2019-03-11T21:12:18.557Z,946.44
2019-03-11T21:14:44.854Z,946.39
2019-03-11T21:17:11.164Z,946.39
2019-03-11T21:19:37.486Z,946.40
2019-03-11T21:22:03.768Z,946.43
2019-03-11T21:24:30.166Z,946.48
2019-03-11T21:26:56.417Z,946.51
2019-03-11T21:29:24.406Z,946.50
2019-03-11T21:31:49.053Z,946.60
2019-03-11T21:34:15.465Z,946.66
2019-03-11T21:36:41.788Z,946.63
2019-03-11T21:39:08.021Z,946.70
2019-03-11T21:41:34.306Z,946.72
2019-03-11T21:44:00.631Z,946.72
2019-03-11T21:46:27.013Z,946.80
2019-03-11T21:48:53.301Z,946.74
2019-03-11T21:51:19.588Z,946.69
2019-03-11T21:53:45.896Z,946.64
2019-03-11T21:56:12.223Z,946.70
2019-03-11T21:58:38.577Z,946.61
2019-03-11T22:01:04.933Z,946.77
2019-03-11T22:03:31.203Z,946.71
2019-03-11T22:05:57.516Z,946.72
2019-03-11T22:08:23.916Z,946.76
2019-03-11T22:10:50.129Z,946.84
2019-03-11T22:13:16.479Z,946.76
2019-03-11T22:15:42.808Z,946.79
2019-03-11T22:18:09.117Z,946.83
2019-03-11T22:20:35.421Z,946.86
2019-03-11T22:23:01.731Z,946.73
2019-03-11T22:25:28.037Z,946.73
2019-03-11T22:27:54.356Z,946.71
2019-03-11T22:30:20.670Z,946.71
2019-03-11T22:32:46.960Z,946.69
2019-03-11T22:35:13.490Z,946.70
2019-03-11T22:37:39.605Z,946.74
2019-03-11T22:40:06.167Z,946.63
2019-03-11T22:42:32.282Z,946.58
2019-03-11T22:44:58.586Z,946.64
2019-03-11T22:47:24.894Z,946.68
2019-03-11T22:49:51.214Z,946.80
2019-03-11T22:52:18.808Z,946.80
2019-03-11T22:54:43.829Z,946.71
2019-03-11T22:57:10.150Z,946.73
2019-03-11T22:59:36.452Z,946.73
2019-03-11T23:02:02.787Z,946.75
2019-03-11T23:04:29.093Z,946.90
2019-03-11T23:06:55.402Z,946.87
2019-03-11T23:09:21.747Z,946.97
2019-03-11T23:11:48.027Z,946.94
2019-03-11T23:14:14.337Z,947.04
2019-03-11T23:16:40.643Z,947.04
2019-03-11T23:19:07.054Z,947.00
2019-03-11T23:21:33.378Z,947.11
2019-03-11T23:23:59.687Z,947.10
2019-03-11T23:26:25.996Z,947.07
2019-03-11T23:28:52.312Z,947.05
2019-03-11T23:31:18.634Z,947.07
2019-03-11T23:33:44.953Z,947.11
2019-03-11T23:36:11.262Z,947.19
2019-03-11T23:38:37.570Z,947.29
2019-03-11T23:41:03.890Z,947.18
2019-03-11T23:43:30.198Z,947.14
2019-03-11T23:45:56.516Z,947.13
2019-03-11T23:48:22.823Z,947.11
2019-03-11T23:50:49.138Z,947.00
2019-03-11T23:53:15.453Z,947.01
2019-03-11T23:55:41.760Z,947.05
2019-03-11T23:58:08.074Z,947.00
